createdAt,value
2017-03-25T00:00:44.622Z,1027.06
2017-03-25T00:01:44.565Z,1027.03
2017-03-25T00:02:44.506Z,1027.06
2017-03-25T00:03:44.435Z,1027.03
2017-03-25T00:04:44.372Z,1027.04
2017-03-25T00:05:44.310Z,1027.03
2017-03-25T00:06:44.248Z,1027.01
2017-03-25T00:07:44.184Z,1026.94
2017-03-25T00:08:44.122Z,1026.95
2017-03-25T00:09:44.060Z,1026.96
2017-03-25T00:10:44.147Z,1026.93
2017-03-25T00:11:43.934Z,1026.94
2017-03-25T00:12:43.872Z,1026.98
2017-03-25T00:13:43.810Z,1027.01
2017-03-25T00:14:43.747Z,1027.01
2017-03-25T00:15:43.684Z,1027
2017-03-25T00:16:43.622Z,1026.97
2017-03-25T00:17:43.563Z,1027.02
2017-03-25T00:18:43.496Z,1027.01
2017-03-25T00:19:43.434Z,1027.03
2017-03-25T00:20:43.372Z,1027.02
2017-03-25T00:21:43.309Z,1027.07
2017-03-25T00:22:43.246Z,1027.03
2017-03-25T00:23:43.184Z,1027.04
2017-03-25T00:24:43.122Z,1027.05
2017-03-25T00:25:43.059Z,1027.06
2017-03-25T00:26:42.996Z,1027.09
2017-03-25T00:27:42.934Z,1027.1
2017-03-25T00:28:42.872Z,1027.09
2017-03-25T00:29:42.809Z,1027.13
2017-03-25T00:30:42.746Z,1027.11
2017-03-25T00:31:42.685Z,1027.13
2017-03-25T00:32:42.631Z,1027.1
2017-03-25T00:33:42.559Z,1027.07
2017-03-25T00:34:42.497Z,1027.11
2017-03-25T00:35:42.434Z,1027.1
2017-03-25T00:36:42.371Z,1027.1
2017-03-25T00:37:42.309Z,1027.08
2017-03-25T00:38:42.247Z,1027.09
2017-03-25T00:39:42.184Z,1027.1
2017-03-25T00:40:42.121Z,1027.08
2017-03-25T00:41:42.060Z,1027.05
2017-03-25T00:42:41.996Z,1027.08
2017-03-25T00:43:41.935Z,1027.06
2017-03-25T00:44:41.873Z,1027.04
2017-03-25T00:45:41.811Z,1027.01
2017-03-25T00:46:41.749Z,1027.01
2017-03-25T00:47:41.685Z,1027
2017-03-25T00:48:41.623Z,1026.99
2017-03-25T00:49:41.561Z,1026.96
2017-03-25T00:50:41.499Z,1026.97
2017-03-25T00:51:41.435Z,1026.96
2017-03-25T00:52:41.374Z,1026.96
2017-03-25T00:53:41.312Z,1027.04
2017-03-25T00:54:41.248Z,1027.05
2017-03-25T00:55:41.190Z,1027.01
2017-03-25T00:56:41.124Z,1026.97
2017-03-25T00:57:41.061Z,1026.94
2017-03-25T00:58:40.998Z,1026.93
2017-03-25T00:59:40.936Z,1026.91
2017-03-25T01:01:10.899Z,1026.88
2017-03-25T01:02:10.586Z,1026.83
2017-03-25T01:03:10.522Z,1026.85
2017-03-25T01:04:10.458Z,1026.83
2017-03-25T01:05:10.396Z,1026.89
2017-03-25T01:06:10.333Z,1026.88
2017-03-25T01:07:10.272Z,1026.89
2017-03-25T01:08:10.208Z,1026.89
2017-03-25T01:09:10.146Z,1026.91
2017-03-25T01:10:10.084Z,1026.88
2017-03-25T01:11:10.020Z,1026.89
2017-03-25T01:12:09.958Z,1026.87
2017-03-25T01:13:09.896Z,1026.87
2017-03-25T01:14:09.837Z,1026.9
2017-03-25T01:15:09.771Z,1026.87
2017-03-25T01:16:09.709Z,1026.83
2017-03-25T01:17:09.646Z,1026.84
2017-03-25T01:18:09.584Z,1026.83
2017-03-25T01:19:09.521Z,1026.78
2017-03-25T01:20:09.458Z,1026.75
2017-03-25T01:21:09.397Z,1026.74
2017-03-25T01:22:09.333Z,1026.74
2017-03-25T01:23:09.271Z,1026.74
2017-03-25T01:24:09.210Z,1026.71
2017-03-25T01:25:09.147Z,1026.72
2017-03-25T01:26:09.086Z,1026.69
2017-03-25T01:27:09.021Z,1026.66
2017-03-25T01:28:08.959Z,1026.67
2017-03-25T01:29:08.897Z,1026.71
2017-03-25T01:30:08.834Z,1026.68
2017-03-25T01:31:08.771Z,1026.68
2017-03-25T01:32:08.709Z,1026.67
2017-03-25T01:33:08.646Z,1026.63
2017-03-25T01:34:08.584Z,1026.65
2017-03-25T01:35:08.521Z,1026.63
2017-03-25T01:36:08.460Z,1026.61
2017-03-25T01:37:08.396Z,1026.59
2017-03-25T01:38:08.335Z,1026.54
2017-03-25T01:39:08.272Z,1026.5
2017-03-25T01:40:08.210Z,1026.53
2017-03-25T01:41:08.146Z,1026.48
2017-03-25T01:42:08.084Z,1026.48
2017-03-25T01:43:08.022Z,1026.45
2017-03-25T01:44:07.959Z,1026.45
2017-03-25T01:45:07.897Z,1026.47
2017-03-25T01:46:07.835Z,1026.49
2017-03-25T01:47:07.772Z,1026.48
2017-03-25T01:48:07.709Z,1026.51
2017-03-25T01:49:07.646Z,1026.49
2017-03-25T01:50:07.584Z,1026.48
2017-03-25T01:51:07.522Z,1026.45
2017-03-25T01:52:07.459Z,1026.45
2017-03-25T01:53:07.397Z,1026.5
2017-03-25T01:54:07.334Z,1026.51
2017-03-25T01:55:07.272Z,1026.53
2017-03-25T01:56:07.213Z,1026.5
2017-03-25T01:57:07.147Z,1026.55
2017-03-25T01:58:07.085Z,1026.54
2017-03-25T01:59:07.022Z,1026.56
2017-03-25T02:00:06.960Z,1026.56
2017-03-25T02:01:06.898Z,1026.59
2017-03-25T02:02:06.834Z,1026.55
2017-03-25T02:03:06.773Z,1026.54
2017-03-25T02:04:06.710Z,1026.51
2017-03-25T02:05:06.647Z,1026.47
2017-03-25T02:06:06.584Z,1026.46
2017-03-25T02:07:06.527Z,1026.45
2017-03-25T02:08:06.459Z,1026.37
2017-03-25T02:09:06.398Z,1026.39
2017-03-25T02:10:06.335Z,1026.34
2017-03-25T02:11:06.272Z,1026.29
2017-03-25T02:12:06.211Z,1026.27
2017-03-25T02:13:06.150Z,1026.26
2017-03-25T02:14:06.085Z,1026.26
2017-03-25T02:15:06.023Z,1026.23
2017-03-25T02:16:05.961Z,1026.24
2017-03-25T02:17:05.897Z,1026.25
2017-03-25T02:18:05.835Z,1026.25
2017-03-25T02:19:05.810Z,1026.23
2017-03-25T02:20:05.710Z,1026.24
2017-03-25T02:21:05.647Z,1026.25
2017-03-25T02:22:05.585Z,1026.26
2017-03-25T02:23:05.524Z,1026.28
2017-03-25T02:24:05.460Z,1026.3
2017-03-25T02:25:05.398Z,1026.3
2017-03-25T02:26:05.335Z,1026.33
2017-03-25T02:27:05.274Z,1026.34
2017-03-25T02:28:05.210Z,1026.33
2017-03-25T02:29:05.148Z,1026.28
2017-03-25T02:30:05.086Z,1026.29
2017-03-25T02:31:05.025Z,1026.26
2017-03-25T02:32:04.961Z,1026.28
2017-03-25T02:33:04.898Z,1026.27
2017-03-25T02:34:04.836Z,1026.3
2017-03-25T02:35:04.775Z,1026.32
2017-03-25T02:36:04.712Z,1026.3
2017-03-25T02:37:04.649Z,1026.27
2017-03-25T02:38:04.587Z,1026.26
2017-03-25T02:39:04.527Z,1026.31
2017-03-25T02:40:04.461Z,1026.34
2017-03-25T02:41:04.400Z,1026.32
2017-03-25T02:42:04.337Z,1026.34
2017-03-25T02:43:04.275Z,1026.31
2017-03-25T02:44:04.212Z,1026.27
2017-03-25T02:45:04.150Z,1026.27
2017-03-25T02:46:04.087Z,1026.25
2017-03-25T02:47:04.027Z,1026.25
2017-03-25T02:48:03.962Z,1026.25
2017-03-25T02:49:03.900Z,1026.27
2017-03-25T02:50:03.839Z,1026.25
2017-03-25T02:51:03.775Z,1026.27
2017-03-25T02:52:03.712Z,1026.19
2017-03-25T02:53:03.651Z,1026.16
2017-03-25T02:54:03.588Z,1026.18
2017-03-25T02:55:03.525Z,1026.18
2017-03-25T02:56:03.465Z,1026.11
2017-03-25T02:57:03.399Z,1026.1
2017-03-25T02:58:03.341Z,1026.09
2017-03-25T02:59:03.275Z,1026.06
2017-03-25T03:00:03.212Z,1026.08
2017-03-25T03:01:03.149Z,1026.05
2017-03-25T03:02:03.091Z,1026.03
2017-03-25T03:03:03.025Z,1025.99
2017-03-25T03:04:02.963Z,1025.97
2017-03-25T03:05:02.899Z,1026.01
2017-03-25T03:06:02.842Z,1025.97
2017-03-25T03:07:02.776Z,1025.97
2017-03-25T03:08:02.712Z,1025.94
2017-03-25T03:09:02.650Z,1026
2017-03-25T03:10:02.591Z,1026.02
2017-03-25T03:11:02.526Z,1025.94
2017-03-25T03:12:02.462Z,1025.97
2017-03-25T03:13:02.401Z,1025.97
2017-03-25T03:14:02.338Z,1025.9
2017-03-25T03:15:02.526Z,1025.87
2017-03-25T03:16:02.212Z,1025.89
2017-03-25T03:17:02.150Z,1025.87
2017-03-25T03:18:02.088Z,1025.84
2017-03-25T03:19:02.024Z,1025.85
2017-03-25T03:20:01.963Z,1025.84
2017-03-25T03:21:01.900Z,1025.84
2017-03-25T03:22:01.838Z,1025.91
2017-03-25T03:23:01.776Z,1025.91
2017-03-25T03:24:01.712Z,1025.86
2017-03-25T03:25:01.651Z,1025.91
2017-03-25T03:26:01.588Z,1025.89
2017-03-25T03:27:01.526Z,1025.87
2017-03-25T03:28:01.463Z,1025.88
2017-03-25T03:29:01.402Z,1025.88
2017-03-25T03:30:01.337Z,1025.78
2017-03-25T03:31:01.285Z,1025.77
2017-03-25T03:32:01.213Z,1025.73
2017-03-25T03:33:01.151Z,1025.76
2017-03-25T03:34:01.091Z,1025.75
2017-03-25T03:35:01.026Z,1025.76
2017-03-25T03:36:00.963Z,1025.71
2017-03-25T03:37:00.901Z,1025.72
2017-03-25T03:38:00.838Z,1025.7
2017-03-25T03:39:00.775Z,1025.66
2017-03-25T03:40:00.723Z,1025.69
2017-03-25T03:41:00.649Z,1025.71
2017-03-25T03:42:00.587Z,1025.75
2017-03-25T03:43:00.525Z,1025.71
2017-03-25T03:44:00.463Z,1025.71
2017-03-25T03:45:00.400Z,1025.75
2017-03-25T03:46:00.338Z,1025.71
2017-03-25T03:47:00.275Z,1025.73
2017-03-25T03:48:00.213Z,1025.71
2017-03-25T03:49:00.150Z,1025.71
2017-03-25T03:50:00.087Z,1025.67
2017-03-25T03:51:00.025Z,1025.65
2017-03-25T03:51:59.962Z,1025.66
2017-03-25T03:52:59.908Z,1025.66
2017-03-25T03:53:59.838Z,1025.67
2017-03-25T03:54:59.776Z,1025.67
2017-03-25T03:55:59.712Z,1025.74
2017-03-25T03:56:59.650Z,1025.72
2017-03-25T03:57:59.588Z,1025.74
2017-03-25T03:58:59.526Z,1025.72
2017-03-25T03:59:59.463Z,1025.75
2017-03-25T04:00:59.400Z,1025.69
2017-03-25T04:01:59.337Z,1025.65
2017-03-25T04:02:59.275Z,1025.62
2017-03-25T04:03:59.213Z,1025.61
2017-03-25T04:04:59.154Z,1025.62
2017-03-25T04:05:59.088Z,1025.61
2017-03-25T04:06:59.025Z,1025.55
2017-03-25T04:07:58.963Z,1025.55
2017-03-25T04:08:58.901Z,1025.52
2017-03-25T04:09:58.838Z,1025.52
2017-03-25T04:10:58.775Z,1025.54
2017-03-25T04:11:58.714Z,1025.54
2017-03-25T04:12:58.652Z,1025.52
2017-03-25T04:13:58.588Z,1025.51
2017-03-25T04:14:58.526Z,1025.51
2017-03-25T04:15:58.464Z,1025.46
2017-03-25T04:16:58.402Z,1025.48
2017-03-25T04:17:58.339Z,1025.5
2017-03-25T04:18:58.277Z,1025.51
2017-03-25T04:19:58.214Z,1025.49
2017-03-25T04:20:58.150Z,1025.47
2017-03-25T04:21:58.088Z,1025.5
2017-03-25T04:22:58.027Z,1025.46
2017-03-25T04:23:57.964Z,1025.48
2017-03-25T04:24:57.901Z,1025.48
2017-03-25T04:25:57.838Z,1025.46
2017-03-25T04:26:57.776Z,1025.45
2017-03-25T04:27:57.728Z,1025.46
2017-03-25T04:28:57.650Z,1025.45
2017-03-25T04:29:57.589Z,1025.44
2017-03-25T04:30:57.537Z,1025.46
2017-03-25T04:31:57.473Z,1025.47
2017-03-25T04:32:57.401Z,1025.44
2017-03-25T04:33:57.338Z,1025.43
2017-03-25T04:34:57.287Z,1025.46
2017-03-25T04:35:57.214Z,1025.47
2017-03-25T04:36:57.151Z,1025.48
2017-03-25T04:37:57.089Z,1025.47
2017-03-25T04:38:57.027Z,1025.43
2017-03-25T04:39:56.964Z,1025.47
2017-03-25T04:40:56.901Z,1025.5
2017-03-25T04:41:56.839Z,1025.46
2017-03-25T04:42:56.776Z,1025.49
2017-03-25T04:43:56.713Z,1025.49
2017-03-25T04:44:56.652Z,1025.5
2017-03-25T04:45:56.597Z,1025.49
2017-03-25T04:46:56.526Z,1025.49
2017-03-25T04:47:56.464Z,1025.53
2017-03-25T04:48:56.402Z,1025.48
2017-03-25T04:49:56.339Z,1025.53
2017-03-25T04:50:56.276Z,1025.5
2017-03-25T04:51:56.214Z,1025.53
2017-03-25T04:52:56.152Z,1025.57
2017-03-25T04:53:56.089Z,1025.56
2017-03-25T04:54:56.026Z,1025.51
2017-03-25T04:55:55.963Z,1025.54
2017-03-25T04:56:55.902Z,1025.54
2017-03-25T04:57:55.839Z,1025.55
2017-03-25T04:58:55.776Z,1025.53
2017-03-25T04:59:55.714Z,1025.5
2017-03-25T05:00:55.651Z,1025.51
2017-03-25T05:01:55.588Z,1025.52
2017-03-25T05:02:55.528Z,1025.5
2017-03-25T05:03:55.464Z,1025.53
2017-03-25T05:04:55.401Z,1025.53
2017-03-25T05:05:55.338Z,1025.54
2017-03-25T05:06:55.278Z,1025.53
2017-03-25T05:07:55.214Z,1025.52
2017-03-25T05:08:55.151Z,1025.52
2017-03-25T05:09:55.089Z,1025.53
2017-03-25T05:10:55.026Z,1025.56
2017-03-25T05:11:54.972Z,1025.56
2017-03-25T05:12:54.901Z,1025.53
2017-03-25T05:13:54.840Z,1025.54
2017-03-25T05:14:54.777Z,1025.48
2017-03-25T05:15:54.713Z,1025.5
2017-03-25T05:16:54.651Z,1025.55
2017-03-25T05:17:54.589Z,1025.48
2017-03-25T05:18:54.528Z,1025.55
2017-03-25T05:19:54.463Z,1025.54
2017-03-25T05:20:54.400Z,1025.51
2017-03-25T05:21:54.338Z,1025.52
2017-03-25T05:22:54.277Z,1025.54
2017-03-25T05:23:54.213Z,1025.52
2017-03-25T05:24:54.150Z,1025.5
2017-03-25T05:25:54.088Z,1025.53
2017-03-25T05:26:54.026Z,1025.49
2017-03-25T05:27:53.963Z,1025.5
2017-03-25T05:28:53.901Z,1025.56
2017-03-25T05:29:53.840Z,1025.57
2017-03-25T05:30:53.776Z,1025.62
2017-03-25T05:31:53.715Z,1025.55
2017-03-25T05:32:53.651Z,1025.59
2017-03-25T05:33:53.589Z,1025.56
2017-03-25T05:34:53.526Z,1025.58
2017-03-25T05:35:53.463Z,1025.6
2017-03-25T05:36:53.401Z,1025.56
2017-03-25T05:37:53.340Z,1025.57
2017-03-25T05:38:53.277Z,1025.55
2017-03-25T05:39:53.214Z,1025.86
2017-03-25T05:40:53.151Z,1025.73
2017-03-25T05:41:53.090Z,1025.53
2017-03-25T05:42:53.030Z,1025.52
2017-03-25T05:43:52.965Z,1025.5
2017-03-25T05:44:52.901Z,1025.51
2017-03-25T05:45:52.838Z,1025.48
2017-03-25T05:46:52.778Z,1025.53
2017-03-25T05:47:52.714Z,1025.51
2017-03-25T05:48:52.651Z,1025.53
2017-03-25T05:49:52.589Z,1025.51
2017-03-25T05:50:52.527Z,1025.53
2017-03-25T05:51:52.464Z,1025.5
2017-03-25T05:52:52.402Z,1025.53
2017-03-25T05:53:52.339Z,1025.52
2017-03-25T05:54:52.283Z,1025.46
2017-03-25T05:55:52.213Z,1025.44
2017-03-25T05:56:52.151Z,1025.47
2017-03-25T05:57:52.089Z,1025.45
2017-03-25T05:58:52.027Z,1025.46
2017-03-25T05:59:51.964Z,1025.45
2017-03-25T06:00:51.901Z,1025.42
2017-03-25T06:01:51.839Z,1025.42
2017-03-25T06:02:51.777Z,1025.42
2017-03-25T06:03:51.714Z,1025.44
2017-03-25T06:04:51.651Z,1025.41
2017-03-25T06:05:51.588Z,1025.43
2017-03-25T06:06:51.529Z,1025.42
2017-03-25T06:07:51.463Z,1025.4
2017-03-25T06:08:51.401Z,1025.4
2017-03-25T06:09:51.339Z,1025.39
2017-03-25T06:10:51.276Z,1025.37
2017-03-25T06:11:51.212Z,1025.39
2017-03-25T06:12:51.152Z,1025.31
2017-03-25T06:13:51.088Z,1025.35
2017-03-25T06:14:51.026Z,1025.33
2017-03-25T06:15:50.965Z,1025.36
2017-03-25T06:16:50.901Z,1025.36
2017-03-25T06:17:50.837Z,1025.39
2017-03-25T06:18:50.815Z,1025.35
2017-03-25T06:19:50.713Z,1025.36
2017-03-25T06:20:50.651Z,1025.4
2017-03-25T06:21:50.587Z,1025.41
2017-03-25T06:22:50.525Z,1025.39
2017-03-25T06:23:50.463Z,1025.41
2017-03-25T06:24:50.401Z,1025.41
2017-03-25T06:25:50.338Z,1025.4
2017-03-25T06:26:50.275Z,1025.41
2017-03-25T06:27:50.213Z,1025.39
2017-03-25T06:28:50.149Z,1025.39
2017-03-25T06:29:50.087Z,1025.41
2017-03-25T06:30:50.025Z,1025.39
2017-03-25T06:31:49.962Z,1025.37
2017-03-25T06:32:49.900Z,1025.39
2017-03-25T06:33:49.837Z,1025.41
2017-03-25T06:34:49.775Z,1025.38
2017-03-25T06:35:49.713Z,1025.4
2017-03-25T06:36:49.649Z,1025.41
2017-03-25T06:37:49.587Z,1025.42
2017-03-25T06:38:49.525Z,1025.4
2017-03-25T06:39:49.461Z,1025.41
2017-03-25T06:40:49.399Z,1025.37
2017-03-25T06:41:49.336Z,1025.29
2017-03-25T06:42:49.275Z,1025.31
2017-03-25T06:43:49.214Z,1025.29
2017-03-25T06:44:49.149Z,1025.35
2017-03-25T06:45:49.087Z,1025.37
2017-03-25T06:46:49.024Z,1025.31
2017-03-25T06:47:48.961Z,1025.41
2017-03-25T06:48:48.899Z,1025.39
2017-03-25T06:49:48.836Z,1025.39
2017-03-25T06:50:48.773Z,1025.38
2017-03-25T06:51:48.710Z,1025.4
2017-03-25T06:52:48.649Z,1025.42
2017-03-25T06:53:48.586Z,1025.36
2017-03-25T06:54:48.522Z,1025.38
2017-03-25T06:55:48.463Z,1025.37
2017-03-25T06:56:48.397Z,1025.4
2017-03-25T06:57:48.336Z,1025.39
2017-03-25T06:58:48.273Z,1025.41
2017-03-25T06:59:48.211Z,1025.4
2017-03-25T07:00:48.148Z,1025.37
2017-03-25T07:01:48.085Z,1025.43
2017-03-25T07:02:48.023Z,1025.4
2017-03-25T07:03:47.960Z,1025.44
2017-03-25T07:04:47.899Z,1025.4
2017-03-25T07:05:47.847Z,1025.41
2017-03-25T07:06:47.772Z,1025.44
2017-03-25T07:07:47.709Z,1025.41
2017-03-25T07:08:47.648Z,1025.41
2017-03-25T07:09:47.584Z,1025.45
2017-03-25T07:10:47.522Z,1025.46
2017-03-25T07:11:47.460Z,1025.44
2017-03-25T07:12:47.397Z,1025.43
2017-03-25T07:13:47.334Z,1025.42
2017-03-25T07:14:47.274Z,1025.43
2017-03-25T07:15:47.210Z,1025.45
2017-03-25T07:16:47.146Z,1025.43
2017-03-25T07:17:47.084Z,1025.44
2017-03-25T07:18:47.021Z,1025.41
2017-03-25T07:19:46.959Z,1025.43
2017-03-25T07:20:46.896Z,1025.41
2017-03-25T07:21:46.833Z,1025.41
2017-03-25T07:22:46.771Z,1025.36
2017-03-25T07:23:46.709Z,1025.34
2017-03-25T07:24:46.646Z,1025.31
2017-03-25T07:25:46.584Z,1025.34
2017-03-25T07:26:46.556Z,1025.35
2017-03-25T07:27:46.458Z,1025.39
2017-03-25T07:28:46.397Z,1025.41
2017-03-25T07:29:46.334Z,1025.37
2017-03-25T07:30:46.270Z,1025.39
2017-03-25T07:31:46.208Z,1025.37
2017-03-25T07:32:46.146Z,1025.34
2017-03-25T07:33:46.084Z,1025.31
2017-03-25T07:34:46.020Z,1025.25
2017-03-25T07:35:45.958Z,1025.29
2017-03-25T07:36:45.895Z,1025.29
2017-03-25T07:37:45.834Z,1025.29
2017-03-25T07:38:45.770Z,1025.29
2017-03-25T07:39:45.708Z,1025.29
2017-03-25T07:40:45.645Z,1025.29
2017-03-25T07:41:45.581Z,1025.3
2017-03-25T07:42:45.520Z,1025.29
2017-03-25T07:43:45.457Z,1025.3
2017-03-25T07:44:45.394Z,1025.28
2017-03-25T07:45:45.332Z,1025.26
2017-03-25T07:46:45.270Z,1025.27
2017-03-25T07:47:45.209Z,1025.28
2017-03-25T07:48:45.145Z,1025.26
2017-03-25T07:49:45.082Z,1025.25
2017-03-25T07:50:45.019Z,1025.32
2017-03-25T07:51:44.957Z,1025.29
2017-03-25T07:52:44.894Z,1025.32
2017-03-25T07:53:44.832Z,1025.33
2017-03-25T07:54:44.769Z,1025.33
2017-03-25T07:55:44.707Z,1025.31
2017-03-25T07:56:44.643Z,1025.34
2017-03-25T07:57:44.581Z,1025.29
2017-03-25T07:58:44.518Z,1025.32
2017-03-25T07:59:44.456Z,1025.33
2017-03-25T08:00:44.393Z,1025.3
2017-03-25T08:01:44.331Z,1025.26
2017-03-25T08:02:44.269Z,1025.3
2017-03-25T08:03:44.210Z,1025.26
2017-03-25T08:04:44.143Z,1025.28
2017-03-25T08:05:44.082Z,1025.21
2017-03-25T08:06:44.018Z,1025.21
2017-03-25T08:07:43.955Z,1025.21
2017-03-25T08:08:43.891Z,1025.16
2017-03-25T08:09:43.830Z,1025.22
2017-03-25T08:10:43.769Z,1025.21
2017-03-25T08:11:43.704Z,1025.17
2017-03-25T08:12:43.641Z,1025.2
2017-03-25T08:13:43.580Z,1025.19
2017-03-25T08:14:43.516Z,1025.14
2017-03-25T08:15:43.454Z,1025.17
2017-03-25T08:16:43.392Z,1025.19
2017-03-25T08:17:43.330Z,1025.22
2017-03-25T08:18:43.267Z,1025.25
2017-03-25T08:19:43.204Z,1025.27
2017-03-25T08:20:43.142Z,1025.24
2017-03-25T08:21:43.079Z,1025.19
2017-03-25T08:22:43.016Z,1025.18
2017-03-25T08:23:42.954Z,1025.17
2017-03-25T08:24:42.890Z,1025.17
2017-03-25T08:25:42.828Z,1025.2
2017-03-25T08:26:42.764Z,1025.11
2017-03-25T08:27:42.702Z,1025.12
2017-03-25T08:28:42.641Z,1025.11
2017-03-25T08:29:42.578Z,1025.1
2017-03-25T08:30:42.514Z,1025.09
2017-03-25T08:31:42.452Z,1025.07
2017-03-25T08:32:42.390Z,1025.08
2017-03-25T08:33:42.326Z,1025.11
2017-03-25T08:34:42.264Z,1025.11
2017-03-25T08:35:42.202Z,1025.11
2017-03-25T08:36:42.138Z,1025.07
2017-03-25T08:37:42.076Z,1025.05
2017-03-25T08:38:42.014Z,1025.01
2017-03-25T08:39:41.951Z,1025
2017-03-25T08:40:41.889Z,1025
2017-03-25T08:41:41.826Z,1024.96
2017-03-25T08:42:41.763Z,1024.98
2017-03-25T08:43:41.749Z,1025
2017-03-25T08:44:41.638Z,1025.03
2017-03-25T08:45:41.576Z,1025.05
2017-03-25T08:46:41.513Z,1025
2017-03-25T08:47:41.450Z,1025
2017-03-25T08:48:41.387Z,1024.98
2017-03-25T08:49:41.327Z,1024.94
2017-03-25T08:50:41.263Z,1024.9
2017-03-25T08:51:41.200Z,1024.94
2017-03-25T08:52:41.138Z,1024.98
2017-03-25T08:53:41.077Z,1024.96
2017-03-25T08:54:41.012Z,1024.99
2017-03-25T08:55:40.950Z,1024.98
2017-03-25T08:56:40.888Z,1025.01
2017-03-25T08:57:40.826Z,1025
2017-03-25T08:58:40.762Z,1025.02
2017-03-25T08:59:40.700Z,1024.99
2017-03-25T09:00:40.638Z,1024.96
2017-03-25T09:01:40.576Z,1025.02
2017-03-25T09:02:40.512Z,1024.98
2017-03-25T09:03:40.449Z,1024.98
2017-03-25T09:04:40.387Z,1024.97
2017-03-25T09:05:40.324Z,1024.96
2017-03-25T09:06:40.261Z,1024.93
2017-03-25T09:07:40.199Z,1024.94
2017-03-25T09:08:40.138Z,1024.93
2017-03-25T09:09:40.073Z,1024.93
2017-03-25T09:10:40.011Z,1025.01
2017-03-25T09:11:39.949Z,1024.91
2017-03-25T09:12:39.887Z,1024.9
2017-03-25T09:13:39.823Z,1024.87
2017-03-25T09:14:39.760Z,1024.86
2017-03-25T09:15:39.698Z,1024.83
2017-03-25T09:16:39.635Z,1024.85
2017-03-25T09:17:39.573Z,1024.87
2017-03-25T09:18:39.510Z,1024.89
2017-03-25T09:19:39.448Z,1024.88
2017-03-25T09:20:39.385Z,1024.86
2017-03-25T09:21:39.322Z,1024.89
2017-03-25T09:22:39.261Z,1024.91
2017-03-25T09:23:39.197Z,1024.9
2017-03-25T09:24:39.134Z,1024.95
2017-03-25T09:25:39.072Z,1024.94
2017-03-25T09:26:39.009Z,1024.89
2017-03-25T09:27:38.997Z,1024.93
2017-03-25T09:28:38.884Z,1024.91
2017-03-25T09:29:38.821Z,1024.93
2017-03-25T09:30:38.760Z,1024.92
2017-03-25T09:31:38.696Z,1024.9
2017-03-25T09:32:38.633Z,1024.92
2017-03-25T09:33:38.570Z,1024.96
2017-03-25T09:34:38.509Z,1024.92
2017-03-25T09:35:38.445Z,1024.89
2017-03-25T09:36:38.383Z,1024.87
2017-03-25T09:37:38.320Z,1024.88
2017-03-25T09:38:38.257Z,1024.86
2017-03-25T09:39:38.197Z,1024.86
2017-03-25T09:40:38.132Z,1024.88
2017-03-25T09:41:38.070Z,1024.89
2017-03-25T09:42:38.007Z,1024.87
2017-03-25T09:43:37.945Z,1024.85
2017-03-25T09:44:37.882Z,1024.85
2017-03-25T09:45:37.820Z,1024.82
2017-03-25T09:46:37.756Z,1024.82
2017-03-25T09:47:37.694Z,1024.77
2017-03-25T09:48:37.632Z,1024.76
2017-03-25T09:49:37.573Z,1024.71
2017-03-25T09:50:37.506Z,1024.69
2017-03-25T09:51:37.444Z,1024.68
2017-03-25T09:52:37.382Z,1024.71
2017-03-25T09:53:37.319Z,1024.7
2017-03-25T09:54:37.262Z,1024.69
2017-03-25T09:55:37.193Z,1024.67
2017-03-25T09:56:37.131Z,1024.64
2017-03-25T09:57:37.067Z,1024.64
2017-03-25T09:58:37.011Z,1024.58
2017-03-25T09:59:36.943Z,1024.61
2017-03-25T10:00:36.880Z,1024.64
2017-03-25T10:01:36.817Z,1024.69
2017-03-25T10:02:36.755Z,1024.66
2017-03-25T10:03:36.693Z,1024.6
2017-03-25T10:04:36.629Z,1024.58
2017-03-25T10:05:36.567Z,1024.54
2017-03-25T10:06:36.504Z,1024.5
2017-03-25T10:07:36.442Z,1024.44
2017-03-25T10:08:36.382Z,1024.46
2017-03-25T10:09:36.316Z,1024.49
2017-03-25T10:10:36.253Z,1024.54
2017-03-25T10:11:36.191Z,1024.56
2017-03-25T10:12:36.129Z,1024.58
2017-03-25T10:13:36.066Z,1024.63
2017-03-25T10:14:36.004Z,1024.58
2017-03-25T10:15:35.940Z,1024.57
2017-03-25T10:16:35.878Z,1024.56
2017-03-25T10:17:35.816Z,1024.49
2017-03-25T10:18:35.753Z,1024.5
2017-03-25T10:19:35.690Z,1024.42
2017-03-25T10:20:35.627Z,1024.38
2017-03-25T10:21:35.565Z,1024.43
2017-03-25T10:22:35.501Z,1024.36
2017-03-25T10:23:35.439Z,1024.33
2017-03-25T10:24:35.378Z,1024.34
2017-03-25T10:25:35.314Z,1024.31
2017-03-25T10:26:35.251Z,1024.29
2017-03-25T10:27:35.189Z,1024.25
2017-03-25T10:28:35.126Z,1024.27
2017-03-25T10:29:35.065Z,1024.24
2017-03-25T10:30:35.002Z,1024.2
2017-03-25T10:31:34.940Z,1024.17
2017-03-25T10:32:34.877Z,1024.12
2017-03-25T10:33:34.814Z,1024.09
2017-03-25T10:34:34.751Z,1024.11
2017-03-25T10:35:34.689Z,1024.05
2017-03-25T10:36:34.626Z,1024.1
2017-03-25T10:37:34.563Z,1024.02
2017-03-25T10:38:34.501Z,1024.03
2017-03-25T10:39:34.439Z,1023.99
2017-03-25T10:40:34.374Z,1023.99
2017-03-25T10:41:34.312Z,1023.96
2017-03-25T10:42:34.251Z,1023.95
2017-03-25T10:43:34.188Z,1023.96
2017-03-25T10:44:34.124Z,1023.97
2017-03-25T10:45:34.062Z,1023.95
2017-03-25T10:46:34.000Z,1023.92
2017-03-25T10:47:33.938Z,1023.95
2017-03-25T10:48:33.875Z,1023.97
2017-03-25T10:49:33.812Z,1023.96
2017-03-25T10:50:33.750Z,1023.87
2017-03-25T10:51:33.685Z,1023.91
2017-03-25T10:52:33.625Z,1023.92
2017-03-25T10:53:33.561Z,1023.85
2017-03-25T10:54:33.500Z,1023.82
2017-03-25T10:55:33.436Z,1023.82
2017-03-25T10:56:33.374Z,1023.8
2017-03-25T10:57:33.312Z,1023.74
2017-03-25T10:58:33.249Z,1023.72
2017-03-25T10:59:33.185Z,1023.78
2017-03-25T11:00:33.122Z,1023.77
2017-03-25T11:01:33.065Z,1023.71
2017-03-25T11:02:32.998Z,1023.7
2017-03-25T11:03:32.935Z,1023.65
2017-03-25T11:04:32.872Z,1023.7
2017-03-25T11:05:32.809Z,1023.64
2017-03-25T11:06:32.747Z,1023.65
2017-03-25T11:07:32.685Z,1023.64
2017-03-25T11:08:32.622Z,1023.56
2017-03-25T11:09:32.560Z,1023.54
2017-03-25T11:10:32.496Z,1023.55
2017-03-25T11:11:32.434Z,1023.56
2017-03-25T11:12:32.372Z,1023.55
2017-03-25T11:13:32.307Z,1023.57
2017-03-25T11:14:32.247Z,1023.57
2017-03-25T11:15:32.184Z,1023.58
2017-03-25T11:16:32.121Z,1023.55
2017-03-25T11:17:32.057Z,1023.51
2017-03-25T11:18:31.996Z,1023.48
2017-03-25T11:19:31.933Z,1023.43
2017-03-25T11:20:31.871Z,1023.45
2017-03-25T11:21:31.808Z,1023.38
2017-03-25T11:22:31.745Z,1023.35
2017-03-25T11:23:31.684Z,1023.37
2017-03-25T11:24:31.620Z,1023.34
2017-03-25T11:25:31.557Z,1023.43
2017-03-25T11:26:31.495Z,1023.44
2017-03-25T11:27:31.433Z,1023.4
2017-03-25T11:28:31.369Z,1023.43
2017-03-25T11:29:31.306Z,1023.42
2017-03-25T11:30:31.245Z,1023.4
2017-03-25T11:31:31.182Z,1023.4
2017-03-25T11:32:31.119Z,1023.4
2017-03-25T11:33:31.057Z,1023.37
2017-03-25T11:34:30.999Z,1023.39
2017-03-25T11:35:30.931Z,1023.41
2017-03-25T11:36:30.867Z,1023.42
2017-03-25T11:37:30.807Z,1023.36
2017-03-25T11:38:30.744Z,1023.34
2017-03-25T11:39:30.681Z,1023.33
2017-03-25T11:40:30.618Z,1023.27
2017-03-25T11:41:30.559Z,1023.21
2017-03-25T11:42:30.494Z,1023.22
2017-03-25T11:43:30.429Z,1023.16
2017-03-25T11:44:30.367Z,1023.13
2017-03-25T11:45:30.306Z,1023.05
2017-03-25T11:46:30.243Z,1023.08
2017-03-25T11:47:30.180Z,1022.97
2017-03-25T11:48:30.119Z,1022.93
2017-03-25T11:49:30.055Z,1022.93
2017-03-25T11:50:29.992Z,1022.96
2017-03-25T11:51:29.929Z,1022.99
2017-03-25T11:52:29.872Z,1022.96
2017-03-25T11:53:29.805Z,1022.95
2017-03-25T11:54:29.742Z,1022.94
2017-03-25T11:55:29.679Z,1022.97
2017-03-25T11:56:29.617Z,1022.93
2017-03-25T11:57:29.553Z,1022.87
2017-03-25T11:58:29.492Z,1022.85
2017-03-25T11:59:29.430Z,1022.8
2017-03-25T12:00:29.367Z,1022.82
2017-03-25T12:01:29.304Z,1022.83
2017-03-25T12:02:29.241Z,1022.81
2017-03-25T12:03:29.179Z,1022.84
2017-03-25T12:04:29.117Z,1022.84
2017-03-25T12:05:29.054Z,1022.85
2017-03-25T12:06:28.992Z,1022.85
2017-03-25T12:07:28.929Z,1022.78
2017-03-25T12:08:28.866Z,1022.76